Time;durP1;ratioP1;P1;durP2;ratioP2;P2;SDS_P1;SDS_P2;PMS_P1;PMS_P2;Temp;Humidity;BMP_temperature;BMP_pressure;BME280_temperature;BME280_humidity;BME280_pressure;Samples;Min_cycle;Max_cycle;Signal;HPM_P1;HPM_P2
2022/07/30 00:01:01;;;;;;;6.07;4.22;;;17.10;99.90;;;;;;5043557;28;20020;-75
2022/07/30 00:03:28;;;;;;;8.57;5.03;;;17.10;99.90;;;;;;5041608;28;20027;-75
2022/07/30 00:05:55;;;;;;;8.63;4.95;;;17.10;99.90;;;;;;5056087;28;20447;-74
2022/07/30 00:08:22;;;;;;;9.65;4.47;;;17.00;99.90;;;;;;5055531;28;20024;-76
2022/07/30 00:10:49;;;;;;;8.95;5.80;;;17.00;99.90;;;;;;5054697;28;20036;-73
2022/07/30 00:13:16;;;;;;;10.05;5.72;;;17.00;99.90;;;;;;5060033;28;20040;-73
2022/07/30 00:15:45;;;;;;;9.93;4.63;;;17.00;99.90;;;;;;5044038;28;20032;-73
2022/07/30 00:18:12;;;;;;;9.43;4.85;;;17.00;99.90;;;;;;5022955;28;20391;-74
2022/07/30 00:20:40;;;;;;;6.25;4.20;;;16.90;99.90;;;;;;5068829;28;20050;-73
2022/07/30 00:23:06;;;;;;;7.45;4.47;;;16.90;99.90;;;;;;5063106;28;20029;-74
2022/07/30 00:25:36;;;;;;;9.90;3.80;;;16.90;99.90;;;;;;5053307;28;20033;-74
2022/07/30 00:28:02;;;;;;;7.00;4.38;;;16.90;99.90;;;;;;5054692;28;20026;-73
2022/07/30 00:30:29;;;;;;;7.32;4.72;;;16.80;99.90;;;;;;5055442;28;20380;-81
2022/07/30 00:32:59;;;;;;;9.85;5.28;;;16.80;99.90;;;;;;5059284;28;20037;-81
2022/07/30 00:35:25;;;;;;;10.13;5.68;;;16.80;99.90;;;;;;5037411;28;20021;-81
2022/07/30 00:37:52;;;;;;;10.48;5.35;;;16.80;99.90;;;;;;5039023;28;20032;-80
2022/07/30 00:40:18;;;;;;;7.35;5.68;;;16.80;99.90;;;;;;5057146;28;20518;-80
2022/07/30 00:42:46;;;;;;;10.90;6.10;;;16.80;99.90;;;;;;5042283;28;20033;-80
2022/07/30 00:45:15;;;;;;;8.05;6.07;;;16.80;99.90;;;;;;5056308;28;20016;-81
2022/07/30 00:47:42;;;;;;;9.27;5.85;;;16.90;99.90;;;;;;5042486;28;20040;-81
2022/07/30 00:50:10;;;;;;;11.88;7.22;;;16.90;99.90;;;;;;5042868;28;20037;-81
2022/07/30 00:52:41;;;;;;;15.52;7.50;;;17.00;99.90;;;;;;5012335;28;20041;-81
2022/07/30 00:55:10;;;;;;;6.90;5.13;;;16.90;99.90;;;;;;5053445;28;20032;-81
2022/07/30 00:57:37;;;;;;;8.52;5.38;;;17.00;99.90;;;;;;5056399;28;20040;-81
2022/07/30 01:00:10;;;;;;;8.35;6.03;;;16.90;99.90;;;;;;5055466;28;20025;-81
2022/07/30 01:02:37;;;;;;;12.70;7.85;;;16.90;99.90;;;;;;5044954;28;20028;-80
2022/07/30 01:05:05;;;;;;;9.07;5.70;;;16.90;99.90;;;;;;5055690;28;20039;-81
2022/07/30 01:07:32;;;;;;;8.23;5.95;;;16.80;99.90;;;;;;5056064;28;20025;-81
2022/07/30 01:10:00;;;;;;;9.07;6.00;;;16.80;99.90;;;;;;5043406;28;20035;-81
2022/07/30 01:12:27;;;;;;;12.23;5.57;;;16.80;99.90;;;;;;5056637;28;20029;-81
2022/07/30 01:14:58;;;;;;;8.00;5.68;;;16.70;99.90;;;;;;5059386;28;20411;-81
2022/07/30 01:17:30;;;;;;;7.85;5.70;;;16.70;99.90;;;;;;5028249;28;20525;-81
2022/07/30 01:20:02;;;;;;;7.78;5.25;;;16.70;99.90;;;;;;5071131;28;20025;-80
2022/07/30 01:23:04;;;;;;;9.20;5.35;;;16.70;99.90;;;;;;5066328;28;20013;-81
2022/07/30 01:25:56;;;;;;;5.97;4.55;;;16.70;99.90;;;;;;5040783;28;20025;-81
2022/07/30 01:28:38;;;;;;;6.45;4.80;;;16.80;99.90;;;;;;5061529;28;20025;-81
2022/07/30 01:31:11;;;;;;;14.02;7.53;;;16.80;99.90;;;;;;5060622;28;20037;-81
2022/07/30 01:33:44;;;;;;;8.75;6.22;;;16.80;99.90;;;;;;5041921;28;20476;-81
2022/07/30 01:36:15;;;;;;;13.55;6.95;;;16.80;99.90;;;;;;5052973;28;20480;-81
2022/07/30 01:38:48;;;;;;;16.25;7.57;;;16.80;99.90;;;;;;5059724;28;20044;-81
2022/07/30 01:41:17;;;;;;;12.18;6.93;;;16.80;99.90;;;;;;5060915;28;20399;-80
2022/07/30 01:43:46;;;;;;;9.32;6.50;;;16.80;99.90;;;;;;5042107;28;20041;-79
2022/07/30 01:46:15;;;;;;;8.40;5.35;;;16.80;99.90;;;;;;5043878;28;20087;-80
2022/07/30 01:48:48;;;;;;;7.40;6.40;;;16.80;99.90;;;;;;5041787;28;20029;-79
2022/07/30 01:51:18;;;;;;;9.38;5.97;;;16.70;99.90;;;;;;5056658;28;20569;-81
2022/07/30 01:53:56;;;;;;;7.72;5.68;;;16.80;99.90;;;;;;5056013;28;20021;-80
2022/07/30 01:56:25;;;;;;;7.38;5.88;;;16.80;99.90;;;;;;5043312;28;20029;-80
2022/07/30 01:58:56;;;;;;;9.73;6.40;;;16.80;99.90;;;;;;5055660;28;20048;-80
2022/07/30 02:01:30;;;;;;;8.27;7.45;;;16.80;99.90;;;;;;5058118;28;20039;-82
2022/07/30 02:04:01;;;;;;;7.22;6.30;;;16.90;99.90;;;;;;5026839;28;21957;-81
2022/07/30 02:06:42;;;;;;;7.88;6.00;;;16.90;99.90;;;;;;5043435;28;20025;-81
2022/07/30 02:09:17;;;;;;;9.80;6.80;;;16.90;99.90;;;;;;5043950;28;20363;-81
2022/07/30 02:15:07;;;;;;;7.30;6.13;;;16.90;99.90;;;;;;5057058;28;21345;-83
2022/07/30 02:17:59;;;;;;;11.30;8.25;;;16.90;99.90;;;;;;5040577;28;20036;-82
2022/07/30 02:20:28;;;;;;;7.25;5.63;;;17.00;99.90;;;;;;5052519;28;20041;-81
2022/07/30 02:23:02;;;;;;;8.57;6.13;;;16.90;99.90;;;;;;5072332;28;20032;-81
2022/07/30 02:25:33;;;;;;;7.22;5.60;;;16.90;99.90;;;;;;5038705;28;20032;-81
2022/07/30 02:28:04;;;;;;;8.43;5.32;;;17.00;99.90;;;;;;5029996;28;20371;-81
2022/07/30 02:30:36;;;;;;;6.93;5.18;;;17.00;99.90;;;;;;5058264;28;20036;-75
2022/07/30 02:33:09;;;;;;;8.15;4.88;;;17.00;99.90;;;;;;5052302;28;20033;-75
2022/07/30 02:35:37;;;;;;;5.07;4.18;;;16.90;99.90;;;;;;5054337;28;20029;-75
2022/07/30 02:38:05;;;;;;;7.13;5.28;;;16.90;99.90;;;;;;5055231;28;20037;-75
2022/07/30 02:40:31;;;;;;;4.50;4.03;;;16.90;99.90;;;;;;5042031;28;20028;-75
2022/07/30 02:43:00;;;;;;;4.55;4.07;;;16.90;99.90;;;;;;5056048;28;20033;-75
2022/07/30 02:45:29;;;;;;;5.82;4.47;;;16.90;99.90;;;;;;5036306;28;20529;-75
2022/07/30 02:48:06;;;;;;;6.55;3.65;;;17.00;99.90;;;;;;5056269;28;20016;-74
2022/07/30 02:50:39;;;;;;;5.32;3.88;;;17.00;99.90;;;;;;5040033;28;20045;-74
2022/07/30 02:53:09;;;;;;;4.40;3.35;;;17.00;99.90;;;;;;5052558;28;20021;-74
2022/07/30 02:55:39;;;;;;;7.18;4.72;;;17.10;99.90;;;;;;5038338;28;20013;-81
2022/07/30 02:58:08;;;;;;;4.95;3.53;;;17.10;99.90;;;;;;5056615;28;20055;-81
2022/07/30 03:00:48;;;;;;;4.95;3.85;;;17.10;99.90;;;;;;5043383;28;20029;-81
2022/07/30 03:03:16;;;;;;;7.00;4.95;;;17.10;99.90;;;;;;5057919;28;20041;-81
2022/07/30 03:05:51;;;;;;;5.35;4.85;;;17.10;99.90;;;;;;5057194;28;20041;-81
2022/07/30 03:08:18;;;;;;;7.60;5.32;;;17.20;99.90;;;;;;5042880;28;20028;-81
2022/07/30 03:10:49;;;;;;;7.53;5.53;;;17.20;99.90;;;;;;5042778;28;20036;-81
2022/07/30 03:13:21;;;;;;;9.63;6.63;;;17.10;99.90;;;;;;5041791;28;20039;-81
2022/07/30 03:15:55;;;;;;;6.07;5.50;;;17.10;99.90;;;;;;5053990;28;20048;-81
2022/07/30 03:18:23;;;;;;;6.30;5.57;;;17.10;99.90;;;;;;5040609;28;20025;-82
2022/07/30 03:20:57;;;;;;;8.15;5.68;;;17.10;99.90;;;;;;5043078;28;20036;-80
2022/07/30 03:23:27;;;;;;;7.63;4.50;;;17.10;99.90;;;;;;5027479;28;20037;-81
2022/07/30 03:26:04;;;;;;;7.40;5.93;;;17.10;99.90;;;;;;5053609;28;20495;-81
2022/07/30 03:28:38;;;;;;;5.63;4.43;;;17.10;99.90;;;;;;5037474;28;20040;-81
2022/07/30 03:31:06;;;;;;;8.00;5.57;;;17.10;99.90;;;;;;5055861;28;20074;-81
2022/07/30 03:33:35;;;;;;;6.78;5.20;;;17.10;99.90;;;;;;5057291;28;20029;-80
2022/07/30 03:36:04;;;;;;;8.25;4.88;;;17.10;99.90;;;;;;5055250;28;20020;-80
2022/07/30 03:38:42;;;;;;;9.15;6.47;;;17.10;99.90;;;;;;5055637;28;20028;-81
2022/07/30 03:41:14;;;;;;;8.90;5.63;;;17.10;99.90;;;;;;5056792;28;20040;-81
2022/07/30 03:43:48;;;;;;;7.53;6.45;;;17.10;99.90;;;;;;5021532;28;20037;-80
2022/07/30 03:46:18;;;;;;;7.72;6.70;;;17.10;99.90;;;;;;5041504;28;20040;-80
2022/07/30 03:48:52;;;;;;;7.47;6.60;;;17.10;99.90;;;;;;5041943;28;20112;-81
2022/07/30 03:51:20;;;;;;;8.77;6.13;;;17.10;99.90;;;;;;5074299;28;20039;-82
2022/07/30 03:53:50;;;;;;;8.32;6.15;;;17.10;99.90;;;;;;5056338;28;20021;-81
2022/07/30 03:56:36;;;;;;;11.05;7.05;;;17.00;99.90;;;;;;5032383;28;20051;-81
2022/07/30 03:59:26;;;;;;;6.53;5.05;;;17.00;99.90;;;;;;5053975;28;20051;-81
2022/07/30 04:01:53;;;;;;;12.35;7.43;;;17.00;99.90;;;;;;5039420;28;20060;-80
2022/07/30 04:04:44;;;;;;;11.43;6.68;;;17.00;99.90;;;;;;5056220;28;20039;-80
2022/07/30 04:07:11;;;;;;;5.85;4.40;;;17.00;99.90;;;;;;5058309;28;20025;-80
2022/07/30 04:09:37;;;;;;;9.05;4.88;;;17.00;99.90;;;;;;5026796;28;20349;-80
2022/07/30 04:12:21;;;;;;;12.52;6.70;;;16.90;99.90;;;;;;5043169;28;20483;-80
2022/07/30 04:14:47;;;;;;;5.68;4.18;;;16.80;99.90;;;;;;5057265;28;20016;-81
2022/07/30 04:17:20;;;;;;;5.88;3.78;;;16.70;99.90;;;;;;5028200;28;20027;-80
2022/07/30 04:19:59;;;;;;;5.95;3.40;;;16.60;99.90;;;;;;5060546;28;20463;-81
2022/07/30 04:22:33;;;;;;;5.97;5.28;;;16.60;99.90;;;;;;5042447;28;20020;-81
2022/07/30 04:25:01;;;;;;;5.85;4.20;;;16.50;99.90;;;;;;5043208;28;20028;-81
2022/07/30 04:27:32;;;;;;;5.75;4.18;;;16.50;99.90;;;;;;5057888;28;20036;-75
2022/07/30 04:30:02;;;;;;;4.45;3.80;;;16.50;99.90;;;;;;5038276;28;20041;-74
2022/07/30 04:32:36;;;;;;;4.10;3.70;;;16.50;99.90;;;;;;5056646;28;20052;-74
2022/07/30 04:35:38;;;;;;;7.07;4.00;;;16.50;99.90;;;;;;5004305;28;20468;-75
2022/07/30 04:38:28;;;;;;;9.57;4.85;;;16.50;99.90;;;;;;5053494;28;20052;-81
2022/07/30 04:40:55;;;;;;;8.60;4.10;;;16.50;99.90;;;;;;5044726;28;20028;-81
2022/07/30 04:43:23;;;;;;;7.45;4.32;;;16.50;99.90;;;;;;5040443;28;20380;-81
2022/07/30 04:45:52;;;;;;;8.82;4.82;;;16.50;99.90;;;;;;5039327;28;20025;-81
2022/07/30 04:48:19;;;;;;;10.50;5.68;;;16.50;99.90;;;;;;5059496;28;20032;-83
2022/07/30 04:50:59;;;;;;;4.93;3.38;;;16.60;99.90;;;;;;5055801;28;20049;-82
2022/07/30 04:53:27;;;;;;;4.65;3.70;;;16.60;99.90;;;;;;5027326;28;20038;-83
2022/07/30 04:56:03;;;;;;;5.35;3.55;;;16.70;99.90;;;;;;5057726;28;20017;-83
2022/07/30 04:58:34;;;;;;;7.05;3.55;;;16.70;99.90;;;;;;5064048;28;20040;-83
2022/07/30 05:01:03;;;;;;;5.75;4.13;;;16.80;99.90;;;;;;5061173;28;20033;-83
2022/07/30 05:03:37;;;;;;;6.90;4.70;;;16.80;99.90;;;;;;5061585;28;20355;-83
2022/07/30 05:06:06;;;;;;;6.43;4.22;;;16.90;99.90;;;;;;5058680;28;20036;-83
2022/07/30 05:08:40;;;;;;;6.78;4.57;;;17.00;99.90;;;;;;5061612;28;20415;-83
2022/07/30 05:11:12;;;;;;;7.50;4.22;;;17.00;99.90;;;;;;5057982;28;20476;-83
2022/07/30 05:13:47;;;;;;;5.18;2.72;;;17.10;99.90;;;;;;5062572;28;20043;-81
2022/07/30 05:16:18;;;;;;;7.57;4.13;;;17.20;99.90;;;;;;5043231;28;20044;-80
2022/07/30 05:18:45;;;;;;;7.35;3.53;;;17.30;99.90;;;;;;5062304;28;20033;-81
2022/07/30 05:21:15;;;;;;;4.32;2.70;;;17.40;99.90;;;;;;5058734;28;20390;-82
2022/07/30 05:23:50;;;;;;;5.15;3.63;;;17.60;99.90;;;;;;5031228;28;20375;-81
2022/07/30 05:26:24;;;;;;;9.75;4.20;;;17.60;99.90;;;;;;5014977;28;20045;-81
2022/07/30 05:29:00;;;;;;;7.47;3.65;;;17.70;99.90;;;;;;5063635;28;20029;-82
2022/07/30 05:31:41;;;;;;;5.53;2.85;;;17.80;99.90;;;;;;5032363;28;20048;-81
2022/07/30 05:34:11;;;;;;;6.38;2.88;;;17.90;99.90;;;;;;5042389;28;20020;-81
2022/07/30 05:36:43;;;;;;;5.07;2.65;;;18.00;99.90;;;;;;5051980;28;20032;-81
2022/07/30 05:39:12;;;;;;;4.88;2.80;;;18.20;99.90;;;;;;5048304;28;20025;-81
2022/07/30 05:42:04;;;;;;;3.22;2.15;;;18.30;99.90;;;;;;5051047;28;20032;-81
2022/07/30 05:44:44;;;;;;;;;;;18.40;99.90;;;;;;5047535;28;20031;-82
2022/07/30 05:47:16;;;;;;;6.85;3.75;;;18.60;99.90;;;;;;5052103;28;20042;-82
2022/07/30 05:49:52;;;;;;;3.95;2.20;;;18.60;99.90;;;;;;5054839;28;20028;-82
2022/07/30 05:52:18;;;;;;;8.00;3.92;;;18.70;99.90;;;;;;5068866;28;20052;-80
2022/07/30 05:54:45;;;;;;;7.15;3.10;;;18.80;99.90;;;;;;5063690;28;20036;-81
2022/07/30 05:57:35;;;;;;;6.10;3.22;;;18.90;99.90;;;;;;5067761;28;20467;-81
2022/07/30 06:00:05;;;;;;;6.38;2.45;;;19.00;99.90;;;;;;5044353;28;20051;-81
2022/07/30 06:02:42;;;;;;;3.60;2.40;;;19.10;99.90;;;;;;5062726;28;20337;-81
2022/07/30 06:05:31;;;;;;;7.70;2.33;;;19.20;99.90;;;;;;5059040;28;20039;-83
2022/07/30 06:08:01;;;;;;;4.30;2.17;;;19.30;99.90;;;;;;5063679;28;20072;-82
2022/07/30 06:10:31;;;;;;;3.65;1.65;;;19.40;99.90;;;;;;5060653;28;20040;-84
2022/07/30 06:13:00;;;;;;;4.60;2.00;;;19.50;99.90;;;;;;5042915;28;20036;-83
2022/07/30 06:15:30;;;;;;;7.38;2.78;;;19.70;99.90;;;;;;5058245;28;20029;-84
2022/07/30 06:17:57;;;;;;;4.00;2.17;;;19.70;99.90;;;;;;5029959;28;20463;-83
2022/07/30 06:20:42;;;;;;;3.42;1.40;;;19.60;99.90;;;;;;5047053;28;20036;-84
2022/07/30 06:23:14;;;;;;;4.32;1.95;;;19.70;99.90;;;;;;5047748;28;20025;-84
2022/07/30 06:26:01;;;;;;;2.63;1.40;;;19.80;99.90;;;;;;5058373;28;20032;-84
2022/07/30 06:28:28;;;;;;;5.90;2.15;;;19.80;99.90;;;;;;5029477;28;20036;-85
2022/07/30 06:30:56;;;;;;;5.00;2.00;;;19.90;99.90;;;;;;5011504;28;21355;-85
2022/07/30 06:33:25;;;;;;;3.53;1.23;;;20.00;99.90;;;;;;5044514;28;20044;-79
2022/07/30 06:35:51;;;;;;;7.45;2.85;;;20.20;99.90;;;;;;5056420;28;20037;-83
2022/07/30 06:38:21;;;;;;;3.38;1.60;;;20.30;99.90;;;;;;5029347;28;20031;-79
2022/07/30 06:40:58;;;;;;;3.65;1.38;;;20.60;99.90;;;;;;5030317;28;20024;-81
2022/07/30 06:43:38;;;;;;;4.32;1.50;;;20.90;99.90;;;;;;5056741;28;20029;-81
2022/07/30 06:46:29;;;;;;;4.57;1.67;;;21.30;99.90;;;;;;5057829;28;20036;-80
2022/07/30 06:48:57;;;;;;;9.20;3.15;;;21.50;99.90;;;;;;5060223;28;20017;-81
2022/07/30 06:51:25;;;;;;;3.90;1.70;;;21.60;99.90;;;;;;5056733;28;20040;-80
2022/07/30 06:53:51;;;;;;;4.80;2.05;;;21.70;99.90;;;;;;5062277;28;20024;-81
2022/07/30 06:56:49;;;;;;;2.95;1.50;;;21.80;99.90;;;;;;5053994;28;20115;-80
2022/07/30 06:59:21;;;;;;;4.90;2.35;;;22.00;99.90;;;;;;5046232;28;20068;-83
2022/07/30 07:02:26;;;;;;;5.00;1.70;;;22.20;99.90;;;;;;5021365;28;20055;-82
2022/07/30 07:05:07;;;;;;;3.13;1.15;;;22.40;99.90;;;;;;5024046;28;20028;-82
2022/07/30 07:07:39;;;;;;;2.85;1.10;;;22.40;99.90;;;;;;5043698;28;20040;-81
2022/07/30 07:10:07;;;;;;;4.57;1.17;;;22.50;99.90;;;;;;5059509;28;20033;-82
2022/07/30 07:12:59;;;;;;;6.57;1.08;;;22.50;99.90;;;;;;5040537;28;20472;-82
2022/07/30 07:15:39;;;;;;;3.33;1.20;;;22.50;99.90;;;;;;5054241;28;20048;-82
2022/07/30 07:18:11;;;;;;;3.50;0.90;;;22.50;99.90;;;;;;5049025;28;20048;-81
2022/07/30 07:20:53;;;;;;;3.67;0.70;;;22.40;99.90;;;;;;5046661;28;20044;-81
2022/07/30 07:23:22;;;;;;;2.60;0.77;;;22.50;99.90;;;;;;5043793;28;20048;-80
2022/07/30 07:25:54;;;;;;;2.90;0.70;;;22.70;99.90;;;;;;5055114;28;20017;-80
2022/07/30 07:28:21;;;;;;;3.03;0.70;;;22.80;99.90;;;;;;5028013;28;20123;-81
2022/07/30 07:30:57;;;;;;;3.92;1.10;;;22.90;99.90;;;;;;5044095;28;20048;-82
2022/07/30 07:33:26;;;;;;;4.57;1.33;;;23.00;99.90;;;;;;5042649;28;20025;-81
2022/07/30 07:35:54;;;;;;;5.55;1.00;;;23.00;99.90;;;;;;5041087;28;20017;-80
2022/07/30 07:38:26;;;;;;;3.45;0.88;;;23.00;99.60;;;;;;5042637;28;20024;-80
2022/07/30 07:40:55;;;;;;;3.17;0.75;;;22.90;99.40;;;;;;5055265;28;20402;-81
2022/07/30 07:43:21;;;;;;;1.88;0.60;;;23.00;99.40;;;;;;5042664;28;20044;-81
2022/07/30 07:45:47;;;;;;;5.30;1.17;;;23.20;98.90;;;;;;5058998;28;20028;-81
2022/07/30 07:48:18;;;;;;;5.47;1.50;;;23.30;98.60;;;;;;5027563;28;20035;-82
2022/07/30 07:51:09;;;;;;;3.35;0.80;;;23.50;98.10;;;;;;5060117;28;20067;-81
2022/07/30 07:53:37;;;;;;;2.72;0.68;;;23.40;98.00;;;;;;5057814;28;20045;-81
2022/07/30 07:56:07;;;;;;;4.43;1.00;;;23.10;98.00;;;;;;5057015;28;20021;-82
2022/07/30 07:58:35;;;;;;;3.92;1.00;;;22.90;98.20;;;;;;5042843;28;20060;-82
2022/07/30 08:01:09;;;;;;;2.13;0.82;;;22.80;98.30;;;;;;5040273;28;20024;-81
2022/07/30 08:04:03;;;;;;;2.40;0.80;;;23.00;98.10;;;;;;5055949;28;20052;-81
2022/07/30 08:06:56;;;;;;;3.22;0.73;;;23.10;97.70;;;;;;5059099;28;20031;-81
2022/07/30 08:09:41;;;;;;;1.70;0.60;;;23.20;97.40;;;;;;5058217;28;20196;-82
2022/07/30 08:12:15;;;;;;;4.25;0.93;;;23.30;97.10;;;;;;5026283;28;20043;-80
2022/07/30 08:15:02;;;;;;;3.90;0.90;;;23.40;96.80;;;;;;5054003;28;20491;-81
2022/07/30 08:17:50;;;;;;;2.83;1.15;;;23.50;96.40;;;;;;5042395;28;20040;-81
2022/07/30 08:20:38;;;;;;;2.42;0.90;;;23.60;96.10;;;;;;5053166;28;20041;-81
2022/07/30 08:23:12;;;;;;;3.42;0.90;;;23.70;95.90;;;;;;5054698;28;20040;-79
2022/07/30 08:25:39;;;;;;;6.57;1.27;;;23.90;95.80;;;;;;5052001;28;20032;-79
2022/07/30 08:28:06;;;;;;;3.60;0.60;;;24.00;95.50;;;;;;5054924;28;20024;-79
2022/07/30 08:30:32;;;;;;;1.67;0.77;;;24.10;95.30;;;;;;5054539;28;20040;-79
2022/07/30 08:32:59;;;;;;;2.80;0.63;;;24.10;94.80;;;;;;5037701;28;20044;-80
2022/07/30 08:35:26;;;;;;;1.92;0.50;;;24.20;94.40;;;;;;5068729;28;20028;-79
2022/07/30 08:37:52;;;;;;;2.78;0.60;;;24.20;93.90;;;;;;5055470;28;20433;-79
2022/07/30 08:40:25;;;;;;;2.33;0.60;;;24.30;93.80;;;;;;5038986;28;20024;-79
2022/07/30 08:43:02;;;;;;;2.10;0.60;;;24.40;93.50;;;;;;5055821;28;20403;-79
2022/07/30 08:45:32;;;;;;;2.67;0.80;;;24.50;93.10;;;;;;5052697;28;20032;-79
2022/07/30 08:48:09;;;;;;;3.40;0.70;;;24.60;93.00;;;;;;5035725;28;20028;-80
2022/07/30 08:50:43;;;;;;;2.47;0.60;;;24.70;92.70;;;;;;5052777;28;20025;-72
2022/07/30 08:53:32;;;;;;;2.22;0.77;;;24.70;92.60;;;;;;5031633;28;20049;-72
2022/07/30 08:56:00;;;;;;;1.80;0.70;;;24.60;92.60;;;;;;5037756;28;20465;-73
2022/07/30 08:58:34;;;;;;;2.25;0.80;;;24.70;92.60;;;;;;5056670;28;20049;-72
2022/07/30 09:01:02;;;;;;;2.38;0.50;;;24.70;92.60;;;;;;5068028;28;20038;-72
2022/07/30 09:03:29;;;;;;;2.75;0.50;;;24.90;92.70;;;;;;5054557;28;20368;-72
2022/07/30 09:06:01;;;;;;;2.03;0.65;;;25.10;92.00;;;;;;5054207;28;20480;-71
2022/07/30 09:08:27;;;;;;;2.88;0.70;;;25.30;91.70;;;;;;5056083;28;20012;-79
2022/07/30 09:10:55;;;;;;;3.55;0.88;;;25.40;90.80;;;;;;5058613;28;20052;-80
2022/07/30 09:13:36;;;;;;;2.35;0.52;;;25.40;90.30;;;;;;5040519;28;20052;-79
2022/07/30 09:16:05;;;;;;;3.92;0.75;;;25.40;90.20;;;;;;5055392;28;20039;-79
2022/07/30 09:18:38;;;;;;;1.50;0.57;;;25.50;90.00;;;;;;5039423;28;20020;-80
2022/07/30 09:21:22;;;;;;;2.42;0.50;;;25.60;89.60;;;;;;5057527;28;20021;-80
2022/07/30 09:23:57;;;;;;;2.10;0.77;;;25.80;89.70;;;;;;5039921;28;20032;-79
2022/07/30 09:26:57;;;;;;;3.67;0.60;;;25.90;89.20;;;;;;5054631;28;20016;-79
2022/07/30 09:29:58;;;;;;;3.28;0.40;;;26.00;87.20;;;;;;5022051;28;20611;-80
2022/07/30 09:32:53;;;;;;;2.03;0.57;;;25.90;87.00;;;;;;5056216;28;20047;-80
2022/07/30 09:35:29;;;;;;;1.92;0.50;;;25.90;84.90;;;;;;5042170;28;20048;-79
2022/07/30 09:38:08;;;;;;;2.42;0.47;;;25.90;85.10;;;;;;5055252;28;20028;-81
2022/07/30 09:40:52;;;;;;;1.92;0.65;;;26.10;84.60;;;;;;5053712;28;20043;-80
2022/07/30 09:44:03;;;;;;;2.23;0.60;;;26.20;84.20;;;;;;5057619;28;20037;-80
2022/07/30 09:46:52;;;;;;;4.57;0.77;;;26.40;84.00;;;;;;5059966;28;20044;-79
2022/07/30 09:49:28;;;;;;;2.40;0.70;;;26.60;83.50;;;;;;5053767;28;20021;-80
2022/07/30 09:51:56;;;;;;;1.98;0.50;;;26.60;83.10;;;;;;5058023;28;20036;-80
2022/07/30 09:54:49;;;;;;;1.88;0.47;;;26.70;82.40;;;;;;5044197;28;20463;-80
2022/07/30 09:57:18;;;;;;;1.40;0.57;;;26.80;81.40;;;;;;5054622;28;20375;-79
2022/07/30 09:59:46;;;;;;;2.25;0.50;;;26.80;80.00;;;;;;5055661;28;20048;-79
2022/07/30 10:02:13;;;;;;;3.05;1.20;;;26.80;80.10;;;;;;5028545;28;20044;-79
2022/07/30 10:05:09;;;;;;;2.05;0.60;;;26.90;80.20;;;;;;5054172;28;20032;-80
2022/07/30 10:07:37;;;;;;;3.25;0.63;;;27.00;79.10;;;;;;5057371;28;20052;-80
2022/07/30 10:10:04;;;;;;;3.47;0.60;;;27.10;79.00;;;;;;5055524;28;20029;-72
2022/07/30 10:12:32;;;;;;;2.00;0.50;;;27.20;78.50;;;;;;5054394;28;20063;-73
2022/07/30 10:15:01;;;;;;;3.10;0.50;;;27.20;77.90;;;;;;5051902;28;20028;-73
2022/07/30 10:17:31;;;;;;;2.00;0.60;;;27.30;76.90;;;;;;5055092;28;20376;-73
2022/07/30 10:20:24;;;;;;;2.35;0.70;;;27.40;75.80;;;;;;5043236;28;20031;-73
2022/07/30 10:23:28;;;;;;;1.88;1.00;;;27.30;75.20;;;;;;5026757;28;20051;-72
2022/07/30 10:26:14;;;;;;;2.05;0.60;;;27.40;75.00;;;;;;5043461;28;20036;-73
2022/07/30 10:28:41;;;;;;;1.45;0.50;;;27.50;74.40;;;;;;5051146;28;20036;-73
2022/07/30 10:31:08;;;;;;;1.73;0.50;;;27.60;73.80;;;;;;5054022;28;20043;-72
2022/07/30 10:33:36;;;;;;;1.33;0.57;;;27.80;74.30;;;;;;5054157;28;20033;-72
2022/07/30 10:36:03;;;;;;;2.45;0.60;;;28.10;73.00;;;;;;5053086;28;20024;-72
2022/07/30 10:38:33;;;;;;;2.08;0.70;;;28.40;72.40;;;;;;5055214;28;20024;-72
2022/07/30 10:41:17;;;;;;;1.63;0.50;;;28.50;71.40;;;;;;5055008;28;20017;-72
2022/07/30 10:44:11;;;;;;;1.42;0.40;;;28.70;71.20;;;;;;5059671;28;20371;-72
2022/07/30 10:46:44;;;;;;;1.48;0.40;;;29.00;70.40;;;;;;5057923;28;20112;-72
2022/07/30 10:49:13;;;;;;;2.03;0.60;;;29.20;68.10;;;;;;5052692;28;20025;-74
2022/07/30 10:51:51;;;;;;;1.08;0.50;;;29.30;66.50;;;;;;5055609;28;20021;-74
2022/07/30 10:54:32;;;;;;;0.95;0.40;;;29.50;66.10;;;;;;5051091;28;20037;-73
2022/07/30 10:57:11;;;;;;;2.28;0.50;;;29.60;65.30;;;;;;5055956;28;20447;-73
2022/07/30 10:59:54;;;;;;;2.08;0.40;;;29.70;65.70;;;;;;5049013;28;20032;-72
2022/07/30 11:02:22;;;;;;;1.83;0.40;;;30.00;65.30;;;;;;5055870;28;20368;-72
2022/07/30 11:05:16;;;;;;;2.75;0.60;;;30.30;64.10;;;;;;5070436;28;20025;-73
2022/07/30 11:07:43;;;;;;;1.77;0.43;;;30.60;63.70;;;;;;5055339;28;20032;-73
2022/07/30 11:10:40;;;;;;;1.73;0.50;;;31.00;62.80;;;;;;5055610;28;20025;-73
2022/07/30 11:13:08;;;;;;;2.60;0.80;;;31.40;61.00;;;;;;5052245;28;20036;-73
2022/07/30 11:15:58;;;;;;;1.52;0.50;;;31.60;60.70;;;;;;5053269;28;20044;-73
2022/07/30 11:18:26;;;;;;;3.35;0.60;;;31.70;58.30;;;;;;5054435;28;20017;-73
2022/07/30 11:21:13;;;;;;;1.17;0.40;;;31.60;58.00;;;;;;5054969;28;20031;-73
2022/07/30 11:23:42;;;;;;;1.55;0.40;;;31.80;57.90;;;;;;5051420;28;20028;-73
2022/07/30 11:26:10;;;;;;;1.17;0.30;;;31.90;57.50;;;;;;5054730;28;20032;-73
2022/07/30 11:28:45;;;;;;;2.05;0.30;;;32.10;57.60;;;;;;5052315;28;20047;-74
2022/07/30 11:31:36;;;;;;;1.08;0.40;;;32.30;56.70;;;;;;5055108;28;20452;-74
2022/07/30 11:34:18;;;;;;;1.90;0.38;;;32.50;56.10;;;;;;5048769;28;20047;-73
2022/07/30 11:37:15;;;;;;;2.13;0.50;;;32.80;56.00;;;;;;5052817;28;20029;-74
2022/07/30 11:39:56;;;;;;;0.95;0.40;;;33.00;55.20;;;;;;5054216;28;20036;-74
2022/07/30 11:42:25;;;;;;;0.88;0.40;;;32.90;55.20;;;;;;5055043;28;20025;-74
2022/07/30 11:44:52;;;;;;;2.55;0.47;;;32.90;55.00;;;;;;5032022;28;20036;-74
2022/07/30 11:47:19;;;;;;;1.77;0.40;;;33.00;54.90;;;;;;5054635;28;20376;-73
2022/07/30 11:49:45;;;;;;;2.13;0.43;;;33.10;54.60;;;;;;5053045;28;20037;-73
2022/07/30 11:52:12;;;;;;;1.45;0.50;;;33.10;54.20;;;;;;5053312;28;20021;-73
2022/07/30 11:54:55;;;;;;;1.05;0.45;;;33.20;54.40;;;;;;5055793;28;20027;-74
2022/07/30 11:57:39;;;;;;;0.80;0.40;;;33.60;53.50;;;;;;5056679;28;20033;-73
2022/07/30 12:00:07;;;;;;;1.38;0.40;;;34.00;53.10;;;;;;5035515;28;20392;-73
2022/07/30 12:02:41;;;;;;;1.40;0.40;;;34.20;52.40;;;;;;5051650;28;20483;-73
2022/07/30 12:05:07;;;;;;;1.58;0.40;;;34.00;52.30;;;;;;5048537;28;20028;-73
2022/07/30 12:07:34;;;;;;;0.95;0.30;;;34.00;52.80;;;;;;5051200;28;20280;-72
2022/07/30 12:10:16;;;;;;;1.98;0.40;;;34.10;53.40;;;;;;5048710;28;20028;-80
2022/07/30 12:12:43;;;;;;;3.47;0.50;;;34.10;52.40;;;;;;5055770;28;20040;-81
2022/07/30 12:15:26;;;;;;;1.65;0.60;;;34.20;52.90;;;;;;5051757;28;20025;-81
2022/07/30 12:17:53;;;;;;;3.10;0.45;;;34.70;52.70;;;;;;5055424;28;20031;-80
2022/07/30 12:20:20;;;;;;;2.00;0.50;;;35.20;51.30;;;;;;5052064;28;20029;-80
2022/07/30 12:22:46;;;;;;;1.65;0.40;;;35.40;50.60;;;;;;5051362;28;20021;-80
2022/07/30 12:25:13;;;;;;;1.40;0.47;;;35.80;51.30;;;;;;5049238;28;20032;-81
2022/07/30 12:27:45;;;;;;;2.65;0.40;;;36.20;49.80;;;;;;5057864;28;20035;-80
2022/07/30 12:30:12;;;;;;;2.00;0.50;;;36.50;49.20;;;;;;5059180;28;20016;-81
2022/07/30 12:32:39;;;;;;;1.08;0.40;;;36.70;48.40;;;;;;5073169;28;20033;-81
2022/07/30 12:35:06;;;;;;;1.73;0.57;;;36.90;48.60;;;;;;5052810;28;20037;-80
2022/07/30 12:37:35;;;;;;;2.25;0.45;;;37.40;47.50;;;;;;5051162;28;20016;-80
2022/07/30 12:40:05;;;;;;;1.73;0.50;;;37.50;46.90;;;;;;5038213;28;20051;-80
2022/07/30 12:42:31;;;;;;;1.50;0.40;;;37.20;46.60;;;;;;5034363;28;20490;-80
2022/07/30 12:44:58;;;;;;;1.42;0.50;;;36.80;47.30;;;;;;5051934;28;20036;-80
2022/07/30 12:47:29;;;;;;;3.08;0.52;;;36.80;46.90;;;;;;5053322;28;20024;-80
2022/07/30 12:49:59;;;;;;;3.20;0.47;;;36.90;47.40;;;;;;5052397;28;20021;-80
2022/07/30 12:52:29;;;;;;;1.80;0.50;;;36.40;46.80;;;;;;5054744;28;20379;-80
2022/07/30 12:55:09;;;;;;;2.95;0.50;;;35.70;48.00;;;;;;5050629;28;20051;-80
2022/07/30 12:57:55;;;;;;;2.42;0.43;;;35.00;48.90;;;;;;5035278;28;20013;-80
2022/07/30 13:00:24;;;;;;;2.53;0.85;;;34.40;49.50;;;;;;5053767;28;20380;-80
2022/07/30 13:02:51;;;;;;;1.50;0.40;;;34.50;50.20;;;;;;5053586;28;20039;-80
2022/07/30 13:05:17;;;;;;;2.33;0.40;;;35.40;49.20;;;;;;5046912;28;20033;-80
2022/07/30 13:07:57;;;;;;;2.25;0.50;;;36.20;48.00;;;;;;5036248;28;20036;-80
2022/07/30 13:10:25;;;;;;;1.52;0.52;;;36.40;47.60;;;;;;5054573;28;20024;-80
2022/07/30 13:12:52;;;;;;;1.40;0.43;;;36.20;47.70;;;;;;5049580;28;20021;-82
2022/07/30 13:15:21;;;;;;;2.25;0.55;;;35.80;47.70;;;;;;5050196;28;20380;-78
2022/07/30 13:17:48;;;;;;;2.13;0.70;;;36.20;47.30;;;;;;5055518;28;20028;-77
2022/07/30 13:20:16;;;;;;;4.10;0.90;;;36.00;47.60;;;;;;5059160;28;20484;-82
2022/07/30 13:22:43;;;;;;;3.83;0.57;;;35.50;48.30;;;;;;5060059;28;20028;-81